Time;durP1;ratioP1;P1;durP2;ratioP2;P2;SDS_P1;SDS_P2;PMS_P1;PMS_P2;Temp;Humidity;BMP_temperature;BMP_pressure;BME280_temperature;BME280_humidity;BME280_pressure;Samples;Min_cycle;Max_cycle;Signal;HPM_P1;HPM_P2
2022/06/13 00:01:57;;;;;;;6.55;4.60;;;;;;;16.50;69.80;96625.76;1787647;79;20985;-81
2022/06/13 00:04:23;;;;;;;4.83;4.42;;;;;;;16.45;69.79;96629.03;1788451;79;21316;-82
2022/06/13 00:06:48;;;;;;;4.58;4.17;;;;;;;16.40;69.97;96624.11;1788575;79;20975;-81
2022/06/13 00:09:14;;;;;;;4.95;4.50;;;;;;;16.35;70.21;96622.63;1786913;79;20945;-81
2022/06/13 00:11:40;;;;;;;4.70;4.30;;;;;;;16.29;70.65;96619.05;1787559;79;21023;-82
2022/06/13 00:14:06;;;;;;;5.30;4.33;;;;;;;16.24;71.12;96620.17;1799213;79;20997;-82
2022/06/13 00:16:32;;;;;;;5.28;4.45;;;;;;;16.20;71.25;96616.37;1774362;79;21053;-81
2022/06/13 00:18:57;;;;;;;4.92;4.40;;;;;;;16.18;71.50;96615.27;1789254;79;21416;-81
2022/06/13 00:21:27;;;;;;;4.40;4.00;;;;;;;16.17;71.31;96612.36;1815485;79;20893;-81
2022/06/13 00:23:53;;;;;;;6.80;4.53;;;;;;;16.21;70.52;96604.36;1812433;79;21005;-81
2022/06/13 00:26:21;;;;;;;4.55;4.17;;;;;;;16.30;70.90;96598.37;1794339;79;20984;-82
2022/06/13 00:28:50;;;;;;;4.30;4.00;;;;;;;16.38;70.54;96593.36;1785605;79;21009;-82
2022/06/13 00:31:16;;;;;;;5.58;4.58;;;;;;;16.47;69.99;96585.54;1792950;79;20980;-81
2022/06/13 00:33:43;;;;;;;4.12;3.83;;;;;;;16.54;69.85;96578.41;1791899;79;21004;-82
2022/06/13 00:36:09;;;;;;;5.28;4.28;;;;;;;16.66;69.28;96575.90;1792144;79;21048;-82
2022/06/13 00:38:37;;;;;;;4.33;4.00;;;;;;;16.77;69.18;96578.66;1784602;79;20900;-82
2022/06/13 00:41:12;;;;;;;5.97;4.50;;;;;;;16.86;68.81;96570.50;1795124;79;20970;-81
2022/06/13 00:43:40;;;;;;;5.90;3.77;;;;;;;17.01;68.02;96573.59;1796964;79;20983;-81
2022/06/13 00:46:26;;;;;;;4.35;4.03;;;;;;;17.18;67.85;96566.73;1786775;79;21429;-81
2022/06/13 00:48:57;;;;;;;4.50;3.98;;;;;;;17.30;67.30;96562.38;1794346;79;21459;-82
2022/06/13 00:51:22;;;;;;;4.55;4.05;;;;;;;17.40;67.13;96565.27;1798328;79;20960;-81
2022/06/13 00:53:48;;;;;;;4.25;3.30;;;;;;;17.43;67.13;96553.55;1814144;79;20961;-82
2022/06/13 00:56:16;;;;;;;4.20;3.80;;;;;;;17.48;66.52;96558.13;1809458;79;20950;-81
2022/06/13 00:58:54;;;;;;;4.47;3.92;;;;;;;17.51;66.75;96552.42;1791200;79;20974;-82
2022/06/13 01:01:21;;;;;;;3.47;3.17;;;;;;;17.52;66.60;96544.84;1793785;79;21342;-81
2022/06/13 01:03:48;;;;;;;3.17;2.87;;;;;;;17.56;66.17;96545.98;1812962;79;20974;-82
2022/06/13 01:06:14;;;;;;;4.53;3.40;;;;;;;17.62;65.09;96539.36;1780277;79;21960;-82
2022/06/13 01:08:40;;;;;;;5.20;3.30;;;;;;;17.70;64.89;96540.89;1792927;79;20961;-82
2022/06/13 01:11:18;;;;;;;3.30;3.00;;;;;;;17.74;65.31;96527.61;1793416;79;20973;-82
2022/06/13 01:14:07;;;;;;;3.17;2.87;;;;;;;17.76;64.61;96531.33;1739775;81;20988;-82
2022/06/13 01:17:11;;;;;;;2.98;2.77;;;;;;;17.84;64.10;96533.12;1769576;80;20941;-82
2022/06/13 01:20:17;;;;;;;2.70;2.50;;;;;;;17.92;64.15;96527.56;1798254;79;20937;-81
2022/06/13 01:23:22;;;;;;;3.22;2.60;;;;;;;17.94;64.29;96527.33;1774724;80;20963;-81
2022/06/13 01:26:05;;;;;;;3.50;2.70;;;;;;;17.97;63.71;96513.73;1740987;81;21376;-81
2022/06/13 01:28:48;;;;;;;2.83;2.60;;;;;;;17.97;63.65;96511.91;1705113;82;21007;-81
2022/06/13 01:31:19;;;;;;;2.60;2.40;;;;;;;17.92;64.05;96509.16;1783947;79;21426;-81
2022/06/13 01:33:51;;;;;;;3.37;3.08;;;;;;;17.86;63.13;96505.30;1796848;79;21077;-81
2022/06/13 01:36:32;;;;;;;2.80;2.50;;;;;;;17.86;63.48;96509.23;1782965;79;20996;-81
2022/06/13 01:39:46;;;;;;;3.30;3.00;;;;;;;17.84;63.55;96502.09;1786271;79;20987;-81
2022/06/13 01:42:58;;;;;;;2.70;2.45;;;;;;;17.82;63.42;96493.63;1775317;79;21056;-81
2022/06/13 01:45:34;;;;;;;;;;;;;;;17.81;62.94;96495.45;1776071;79;20899;-81
2022/06/13 01:48:29;;;;;;;2.98;2.67;;;;;;;17.82;63.37;96488.37;1731531;81;20151;-81
2022/06/13 01:51:15;;;;;;;3.45;2.58;;;;;;;17.78;63.65;96491.97;1775310;78;20943;-81
2022/06/13 01:53:57;;;;;;;2.70;2.50;;;;;;;17.72;63.42;96495.48;1798499;79;20967;-82
2022/06/13 01:56:32;;;;;;;3.42;3.00;;;;;;;17.69;63.81;96494.10;1781642;80;21014;-82
2022/06/13 01:59:06;;;;;;;2.85;2.40;;;;;;;17.74;63.16;96490.83;1785136;79;20932;-82
2022/06/13 02:01:42;;;;;;;2.83;2.30;;;;;;;17.78;63.33;96491.17;1762984;80;20996;-81
2022/06/13 02:04:24;;;;;;;3.83;2.75;;;;;;;17.80;62.90;96487.80;1766847;80;21048;-82
2022/06/13 02:06:57;;;;;;;2.87;2.50;;;;;;;17.83;62.99;96490.78;1771739;80;20959;-82
2022/06/13 02:09:28;;;;;;;3.47;2.60;;;;;;;17.82;62.74;96483.12;1771255;80;20979;-81
2022/06/13 02:11:55;;;;;;;2.60;2.40;;;;;;;17.82;62.37;96487.86;1772541;80;20957;-81
2022/06/13 02:14:35;;;;;;;4.00;2.12;;;;;;;17.81;62.83;96477.58;1777169;80;20970;-82
2022/06/13 02:17:13;;;;;;;2.42;2.22;;;;;;;17.81;62.39;96479.69;1787929;80;20999;-81
2022/06/13 02:19:50;;;;;;;2.52;2.20;;;;;;;17.83;62.75;96475.52;1769370;80;21346;-81
2022/06/13 02:22:43;;;;;;;3.33;2.27;;;;;;;17.81;62.04;96474.44;1791107;80;21267;-81
2022/06/13 02:25:17;;;;;;;2.75;2.27;;;;;;;17.82;62.51;96472.09;1770161;80;20968;-81
2022/06/13 02:27:49;;;;;;;2.72;2.40;;;;;;;17.78;62.90;96471.46;1771569;80;20961;-81
2022/06/13 02:30:19;;;;;;;3.98;2.60;;;;;;;17.74;62.75;96472.43;1787042;79;20985;-81
2022/06/13 02:33:07;;;;;;;2.92;2.52;;;;;;;17.76;62.27;96469.06;1789284;79;21333;-81
2022/06/13 02:35:56;;;;;;;3.15;2.37;;;;;;;17.81;62.27;96466.55;1790034;79;21383;-81
2022/06/13 02:38:33;;;;;;;2.87;2.58;;;;;;;17.81;62.05;96471.01;1777248;79;20975;-81
2022/06/13 02:41:09;;;;;;;2.90;2.70;;;;;;;17.78;62.05;96464.37;1784746;79;20967;-80
2022/06/13 02:43:45;;;;;;;2.42;2.15;;;;;;;17.78;61.98;96467.00;1776081;79;20938;-80
2022/06/13 02:46:16;;;;;;;3.35;2.52;;;;;;;17.74;62.38;96461.91;1784884;79;20952;-81
2022/06/13 02:48:47;;;;;;;2.58;2.30;;;;;;;17.67;62.67;96459.84;1789627;79;20973;-81
2022/06/13 02:51:26;;;;;;;3.85;2.35;;;;;;;17.60;63.12;96461.27;1790101;79;20953;-81
2022/06/13 02:54:18;;;;;;;2.55;2.10;;;;;;;17.53;63.55;96465.00;1789003;79;20963;-81
2022/06/13 03:00:08;;;;;;;2.50;1.90;;;;;;;17.34;64.03;96463.73;1756318;79;20989;-81
2022/06/13 03:02:57;;;;;;;3.45;2.40;;;;;;;17.28;63.99;96463.83;1787735;79;21359;-81
2022/06/13 03:05:31;;;;;;;2.55;2.22;;;;;;;17.22;63.68;96464.69;1783231;79;20990;-81
2022/06/13 03:08:19;;;;;;;2.98;2.40;;;;;;;17.18;63.94;96461.71;1782283;79;20976;-81
2022/06/13 03:11:18;;;;;;;2.62;2.30;;;;;;;17.18;63.38;96461.71;1789829;79;20952;-82
2022/06/13 03:14:06;;;;;;;4.30;2.30;;;;;;;17.19;64.01;96464.63;1721151;82;20944;-82
2022/06/13 03:17:03;;;;;;;4.33;2.17;;;;;;;17.18;63.15;96458.28;1729230;82;20975;-81
2022/06/13 03:19:54;;;;;;;2.27;1.95;;;;;;;17.20;62.97;96458.86;1765217;79;20977;-82
2022/06/13 03:22:55;;;;;;;2.60;2.15;;;;;;;17.25;62.30;96455.88;1812738;79;20949;-82
2022/06/13 03:25:45;;;;;;;2.55;2.12;;;;;;;17.34;62.69;96455.05;1751402;79;20957;-81
2022/06/13 03:28:30;;;;;;;2.27;2.00;;;;;;;17.38;62.25;96450.44;1747783;81;20999;-82
2022/06/13 03:31:06;;;;;;;2.83;2.62;;;;;;;17.42;62.20;96454.75;1791501;79;20945;-81
2022/06/13 03:33:41;;;;;;;2.87;2.02;;;;;;;17.44;62.96;96450.59;1805021;79;21102;-81
2022/06/13 03:36:20;;;;;;;1.95;1.75;;;;;;;17.43;62.98;96451.61;1774124;79;20996;-82
2022/06/13 03:39:20;;;;;;;2.30;1.90;;;;;;;17.45;61.97;96448.25;1793940;79;21331;-81
2022/06/13 03:42:00;;;;;;;2.70;2.50;;;;;;;17.50;62.11;96443.92;1788394;79;21046;-82
2022/06/13 03:44:30;;;;;;;3.42;2.02;;;;;;;17.55;61.78;96449.81;1778343;79;21023;-82
2022/06/13 03:47:00;;;;;;;2.52;2.25;;;;;;;17.59;62.24;96457.04;1787962;79;20952;-81
2022/06/13 03:49:37;;;;;;;2.50;2.30;;;;;;;17.59;63.07;96453.61;1791586;79;20997;-81
2022/06/13 03:52:03;;;;;;;3.12;2.83;;;;;;;17.56;64.77;96454.03;1793065;79;20930;-81
2022/06/13 03:54:49;;;;;;;2.90;2.60;;;;;;;17.48;64.54;96459.62;1714969;81;21005;-81
2022/06/13 03:57:28;;;;;;;2.22;2.02;;;;;;;17.42;65.72;96456.58;1768017;80;20987;-82
2022/06/13 04:00:11;;;;;;;3.10;2.40;;;;;;;17.35;66.53;96449.57;1768685;79;21320;-81
2022/06/13 04:02:40;;;;;;;2.50;2.25;;;;;;;17.30;65.67;96442.08;1804663;79;20909;-81
2022/06/13 04:05:08;;;;;;;2.98;2.47;;;;;;;17.27;65.10;96435.45;1786942;80;21025;-81
2022/06/13 04:07:35;;;;;;;3.47;2.25;;;;;;;17.25;64.80;96430.94;1790888;79;21394;-82
2022/06/13 04:10:08;;;;;;;3.00;2.30;;;;;;;17.28;64.61;96427.06;1792396;79;20964;-82
2022/06/13 04:13:20;;;;;;;3.05;2.65;;;;;;;17.30;64.96;96426.33;1792721;79;20949;-81
2022/06/13 04:16:15;;;;;;;3.85;2.10;;;;;;;17.33;64.82;96428.50;1704943;83;21029;-81
2022/06/13 04:19:12;;;;;;;3.10;2.40;;;;;;;17.39;64.26;96427.59;1695196;83;21062;-81
2022/06/13 04:21:43;;;;;;;4.12;2.12;;;;;;;17.44;64.64;96426.95;1781082;79;20949;-81
2022/06/13 04:24:30;;;;;;;3.35;2.30;;;;;;;17.58;64.35;96429.69;1800895;79;21081;-81
2022/06/13 04:27:23;;;;;;;2.70;2.50;;;;;;;17.66;63.60;96430.66;1813217;79;20944;-81
2022/06/13 04:29:59;;;;;;;2.83;2.60;;;;;;;17.74;63.72;96428.27;1794287;79;21427;-82
2022/06/13 04:32:36;;;;;;;2.95;2.10;;;;;;;17.79;64.04;96426.55;1792486;79;20990;-81
2022/06/13 04:35:02;;;;;;;3.25;2.50;;;;;;;17.81;63.61;96428.44;1793108;79;21147;-81
2022/06/13 04:37:29;;;;;;;2.52;2.30;;;;;;;17.87;61.94;96428.04;1792200;79;20929;-81
2022/06/13 04:39:59;;;;;;;2.60;2.40;;;;;;;17.99;63.49;96429.66;1792242;79;20980;-81
2022/06/13 04:42:25;;;;;;;2.95;2.75;;;;;;;18.05;63.92;96430.58;1796648;79;20986;-81
2022/06/13 04:44:51;;;;;;;4.28;2.42;;;;;;;18.06;64.67;96427.43;1788423;79;21455;-82
2022/06/13 04:47:17;;;;;;;3.75;2.12;;;;;;;18.05;64.42;96426.63;1801905;79;21005;-82
2022/06/13 04:49:48;;;;;;;3.95;2.05;;;;;;;18.10;62.91;96430.72;1739503;81;21019;-82
2022/06/13 04:52:19;;;;;;;3.27;2.30;;;;;;;18.20;62.69;96431.45;1802478;79;21021;-81
2022/06/13 04:54:53;;;;;;;2.77;2.20;;;;;;;18.34;61.98;96428.88;1746664;81;21321;-81
2022/06/13 04:57:18;;;;;;;3.00;2.20;;;;;;;18.45;61.71;96430.72;1785557;80;20947;-82
2022/06/13 04:59:44;;;;;;;2.70;2.50;;;;;;;18.55;61.81;96423.05;1781627;80;21015;-81
2022/06/13 05:02:20;;;;;;;2.60;2.40;;;;;;;18.63;62.79;96421.91;1777836;80;21334;-82
2022/06/13 05:04:46;;;;;;;4.03;2.42;;;;;;;18.68;61.60;96414.12;1777270;80;21142;-82
2022/06/13 05:07:18;;;;;;;2.50;2.30;;;;;;;18.65;62.58;96394.84;1776605;80;21055;-81
2022/06/13 05:09:56;;;;;;;2.80;2.35;;;;;;;18.79;62.84;96411.98;1776297;80;21279;-82
2022/06/13 05:12:33;;;;;;;2.77;2.35;;;;;;;18.87;62.26;96413.44;1778570;80;21380;-81
2022/06/13 05:15:19;;;;;;;2.92;2.30;;;;;;;18.99;62.00;96410.27;1751718;80;21347;-81
2022/06/13 05:18:22;;;;;;;3.00;2.15;;;;;;;19.09;61.83;96409.67;1773583;80;21395;-81
2022/06/13 05:21:18;;;;;;;2.77;2.30;;;;;;;19.19;61.63;96409.85;1773022;80;20975;-81
2022/06/13 05:23:52;;;;;;;3.55;2.40;;;;;;;19.34;59.83;96411.45;1786189;80;21310;-81
2022/06/13 05:26:27;;;;;;;2.17;2.00;;;;;;;19.46;59.33;96411.41;1751485;80;21056;-81
2022/06/13 05:28:47;;;;;;;2.60;2.30;;;;;;;19.55;59.15;96411.87;1768624;80;21031;-81
2022/06/13 05:31:18;;;;;;;2.22;2.00;;;;;;;19.61;59.02;96406.43;1767880;80;21000;-81
2022/06/13 05:33:44;;;;;;;;;;;;;;;19.68;58.82;96415.49;1773843;79;21094;-81
2022/06/13 05:36:17;;;;;;;2.92;2.25;;;;;;;19.76;59.92;96404.57;1793745;80;20132;-81
2022/06/13 05:38:52;;;;;;;3.55;1.90;;;;;;;19.81;58.71;96398.58;1782292;80;20971;-81
2022/06/13 05:41:19;;;;;;;1.90;1.80;;;;;;;19.87;57.97;96403.70;1791944;79;21390;-81
2022/06/13 05:43:44;;;;;;;2.30;1.87;;;;;;;19.95;58.03;96397.22;1813641;79;21020;-81
2022/06/13 05:46:21;;;;;;;2.92;2.30;;;;;;;19.97;57.62;96385.39;1802078;79;20937;-81
2022/06/13 05:48:51;;;;;;;2.62;1.90;;;;;;;19.97;57.62;96385.39;1791153;79;20974;-82
2022/06/13 05:51:17;;;;;;;2.77;2.10;;;;;;;20.04;57.55;96391.84;1794795;79;20910;-81
2022/06/13 05:53:43;;;;;;;2.40;2.02;;;;;;;20.07;57.09;96392.67;1798401;79;20964;-81
2022/06/13 05:56:08;;;;;;;3.20;2.30;;;;;;;20.08;56.93;96385.83;1801956;79;21036;-81
2022/06/13 05:58:36;;;;;;;2.30;2.10;;;;;;;20.13;56.57;96390.38;1777936;79;21486;-81
2022/06/13 06:01:02;;;;;;;2.08;1.80;;;;;;;20.20;57.11;96400.77;1802007;79;20967;-81
2022/06/13 06:03:28;;;;;;;2.25;2.05;;;;;;;20.24;56.18;96404.00;1792840;79;21458;-81
2022/06/13 06:05:54;;;;;;;2.72;1.80;;;;;;;20.29;57.11;96411.98;1797461;79;21005;-81
2022/06/13 06:08:27;;;;;;;2.47;1.90;;;;;;;20.32;57.09;96405.41;1802300;79;21315;-81
2022/06/13 06:10:56;;;;;;;1.95;1.72;;;;;;;20.39;56.34;96416.61;1792653;79;21359;-81
2022/06/13 06:13:22;;;;;;;2.85;1.60;;;;;;;20.48;56.03;96429.69;1775050;79;21438;-81
2022/06/13 06:15:48;;;;;;;2.25;1.72;;;;;;;20.56;55.53;96424.01;1798740;79;21087;-81
2022/06/13 06:18:14;;;;;;;2.08;1.90;;;;;;;20.64;56.62;96432.02;1793549;79;21350;-81
2022/06/13 06:20:40;;;;;;;2.92;1.98;;;;;;;20.67;56.46;96431.03;1805279;79;20922;-81
2022/06/13 06:23:06;;;;;;;2.40;1.87;;;;;;;20.70;56.91;96431.06;1785791;79;20977;-81
2022/06/13 06:25:32;;;;;;;1.85;1.75;;;;;;;20.75;56.52;96435.08;1739402;81;20984;-81
2022/06/13 06:27:59;;;;;;;3.15;2.10;;;;;;;20.85;56.27;96444.46;1735818;81;21051;-81
2022/06/13 06:30:27;;;;;;;4.12;2.95;;;;;;;20.90;55.66;96457.72;1772118;80;21016;-81
2022/06/13 06:32:56;;;;;;;5.55;3.55;;;;;;;20.90;57.24;96480.17;1768473;80;20959;-81
2022/06/13 06:35:24;;;;;;;4.62;4.22;;;;;;;20.76;58.03;96480.77;1774786;80;21023;-81
2022/06/13 06:37:51;;;;;;;6.10;4.92;;;;;;;20.67;58.70;96493.08;1779719;80;21326;-80
2022/06/13 06:40:17;;;;;;;7.33;4.90;;;;;;;20.58;59.43;96482.63;1745339;81;20985;-80
2022/06/13 06:42:43;;;;;;;8.23;5.95;;;;;;;20.54;60.62;96500.00;1739078;81;21387;-80
2022/06/13 06:45:09;;;;;;;5.40;4.90;;;;;;;20.50;61.16;96501.53;1738030;81;20955;-80
2022/06/13 06:47:36;;;;;;;9.08;5.35;;;;;;;20.49;61.63;96491.19;1738101;81;20948;-80
2022/06/13 06:50:03;;;;;;;5.78;5.15;;;;;;;20.50;61.15;96496.26;1745790;81;21329;-80
2022/06/13 06:52:29;;;;;;;7.90;5.28;;;;;;;20.46;60.91;96499.08;1780144;80;20950;-80
2022/06/13 07:00:24;;;;;;;5.85;5.25;;;;;;;20.49;60.53;96507.03;1782359;80;20973;-80
2022/06/13 07:02:50;;;;;;;6.85;5.22;;;;;;;20.49;60.73;96507.03;1781166;80;20992;-80
2022/06/13 07:05:16;;;;;;;7.20;6.12;;;;;;;20.49;60.41;96497.79;1789688;80;20999;-81
2022/06/13 07:07:41;;;;;;;7.37;4.95;;;;;;;20.53;60.90;96495.77;1782746;80;21217;-81
2022/06/13 07:10:09;;;;;;;7.67;5.22;;;;;;;20.67;60.79;96485.16;1782167;80;20963;-81
2022/06/13 07:12:36;;;;;;;6.53;5.47;;;;;;;20.67;60.79;96485.16;1780339;80;20925;-81
2022/06/13 07:15:02;;;;;;;7.10;5.50;;;;;;;20.80;61.18;96490.59;1778639;80;20959;-80
2022/06/13 07:17:27;;;;;;;6.60;5.17;;;;;;;20.87;60.77;96493.88;1770771;80;20957;-81
2022/06/13 07:19:53;;;;;;;5.67;5.20;;;;;;;21.00;61.19;96487.44;1762604;80;20987;-80
2022/06/13 07:22:21;;;;;;;7.65;5.42;;;;;;;21.19;60.62;96494.02;1765216;80;21044;-81
2022/06/13 07:24:47;;;;;;;6.65;5.05;;;;;;;21.38;60.54;96492.41;1773442;80;20957;-80
2022/06/13 07:27:13;;;;;;;6.22;5.35;;;;;;;21.51;59.54;96489.39;1772136;80;21027;-81
2022/06/13 07:29:40;;;;;;;6.53;5.15;;;;;;;21.65;59.52;96493.25;1775088;80;20988;-80
2022/06/13 07:32:19;;;;;;;6.42;4.72;;;;;;;21.83;60.48;96491.57;1795596;80;21069;-81
2022/06/13 07:34:49;;;;;;;6.75;4.85;;;;;;;21.98;58.94;96491.44;1767164;80;22216;-80
2022/06/13 07:40:05;;;;;;;4.92;4.33;;;;;;;21.92;58.96;96496.39;1758903;81;21023;-81
2022/06/13 07:42:39;;;;;;;6.80;5.20;;;;;;;21.90;58.38;96485.27;1773779;80;20981;-81
2022/06/13 07:45:07;;;;;;;6.12;5.08;;;;;;;21.88;58.93;96482.35;1753813;81;21558;-81
2022/06/13 07:47:33;;;;;;;5.85;4.55;;;;;;;21.94;59.48;96481.86;1739746;81;20957;-80
2022/06/13 07:49:58;;;;;;;6.62;4.87;;;;;;;21.91;60.46;96483.70;1753816;81;20949;-81
2022/06/13 07:52:24;;;;;;;6.17;4.67;;;;;;;21.89;59.48;96488.44;1745982;81;21423;-80
2022/06/13 07:54:50;;;;;;;7.55;4.83;;;;;;;21.93;59.62;96489.53;1763695;81;21003;-80
2022/06/13 07:57:16;;;;;;;5.10;4.60;;;;;;;21.91;58.41;96487.66;1755701;81;20941;-81
2022/06/13 07:59:42;;;;;;;5.85;4.95;;;;;;;21.95;59.41;96486.11;1748325;81;21376;-81
2022/06/13 08:02:17;;;;;;;6.90;4.75;;;;;;;21.98;58.87;96481.66;1754732;81;20951;-81
2022/06/13 08:04:43;;;;;;;6.17;5.10;;;;;;;22.00;58.79;96473.47;1744834;81;21127;-80
2022/06/13 08:07:12;;;;;;;5.00;4.50;;;;;;;21.97;57.89;96461.55;1762738;80;21261;-80
2022/06/13 08:09:38;;;;;;;5.80;5.10;;;;;;;22.00;60.81;96457.59;1707922;82;20956;-80
2022/06/13 08:12:04;;;;;;;5.97;4.83;;;;;;;22.12;60.18;96459.03;1761337;80;21403;-81
2022/06/13 08:14:30;;;;;;;5.00;4.60;;;;;;;22.16;60.52;96466.76;1736665;81;21327;-81
2022/06/13 08:16:56;;;;;;;5.00;4.50;;;;;;;22.37;60.62;96454.98;1738969;81;20984;-81
2022/06/13 08:19:22;;;;;;;6.00;5.03;;;;;;;22.50;59.54;96461.70;1747881;81;21440;-81
2022/06/13 08:21:47;;;;;;;6.25;4.80;;;;;;;22.64;59.28;96463.65;1755042;81;21347;-81
2022/06/13 08:24:13;;;;;;;4.78;3.85;;;;;;;22.80;58.69;96467.18;1756494;81;20948;-81
2022/06/13 08:26:39;;;;;;;5.97;5.40;;;;;;;22.93;58.67;96462.75;1757293;81;20922;-81
2022/06/13 08:29:05;;;;;;;5.95;5.30;;;;;;;23.13;56.92;96463.92;1752553;81;20943;-80
2022/06/13 08:31:33;;;;;;;6.33;4.78;;;;;;;23.16;57.41;96461.55;1753899;81;21047;-81
2022/06/13 08:33:59;;;;;;;5.87;5.28;;;;;;;23.03;56.81;96460.69;1685154;83;20933;-81
2022/06/13 08:36:24;;;;;;;6.03;5.17;;;;;;;23.10;57.35;96463.09;1753346;80;21114;-81
2022/06/13 08:38:50;;;;;;;7.05;6.00;;;;;;;23.25;57.75;96472.42;1773465;80;20952;-81
2022/06/13 08:41:59;;;;;;;5.87;5.33;;;;;;;23.23;56.80;96476.67;1756564;80;20989;-81
2022/06/13 08:44:48;;;;;;;6.30;5.70;;;;;;;23.24;57.38;96468.19;1759115;80;20977;-81
2022/06/13 08:47:29;;;;;;;8.03;6.12;;;;;;;23.27;57.74;96463.19;1761347;80;20948;-81
2022/06/13 08:50:09;;;;;;;6.42;5.83;;;;;;;23.28;57.97;96470.61;1771321;80;21462;-80
2022/06/13 08:52:52;;;;;;;6.25;4.85;;;;;;;23.29;57.20;96461.06;1762769;80;20958;-80
2022/06/13 08:55:35;;;;;;;9.13;7.45;;;;;;;23.32;58.31;96471.14;1754278;80;21007;-81
2022/06/13 08:58:48;;;;;;;7.47;6.03;;;;;;;23.28;57.68;96475.91;1773311;80;21037;-80
2022/06/13 09:01:19;;;;;;;6.25;5.75;;;;;;;23.00;57.80;96457.23;1698748;83;21022;-80
2022/06/13 09:04:07;;;;;;;6.28;5.28;;;;;;;22.86;57.93;96471.47;1715680;83;21012;-81
2022/06/13 09:06:59;;;;;;;4.60;4.05;;;;;;;22.82;59.31;96468.25;1723433;82;21058;-80
2022/06/13 09:09:33;;;;;;;4.28;3.87;;;;;;;22.83;58.72;96469.88;1717326;80;21325;-81
2022/06/13 09:12:13;;;;;;;4.90;3.80;;;;;;;22.75;59.95;96479.05;1722008;82;21004;-80
2022/06/13 09:14:59;;;;;;;5.75;3.83;;;;;;;22.71;57.91;96478.77;1709401;83;21040;-80
2022/06/13 09:17:39;;;;;;;3.67;3.25;;;;;;;22.54;57.50;96476.02;1733153;81;20937;-81
2022/06/13 09:20:16;;;;;;;5.28;3.60;;;;;;;22.49;57.75;96474.14;1738521;81;20972;-80
2022/06/13 09:22:53;;;;;;;3.70;2.98;;;;;;;22.41;57.25;96474.59;1736509;81;20987;-81
2022/06/13 09:25:47;;;;;;;5.40;2.95;;;;;;;22.29;57.13;96481.42;1744874;81;20956;-81
2022/06/13 09:28:46;;;;;;;5.03;3.75;;;;;;;22.15;57.06;96476.28;1744177;81;20980;-81
2022/06/13 09:31:29;;;;;;;3.72;3.35;;;;;;;21.92;57.30;96474.70;1725011;81;21067;-80
2022/06/13 09:34:07;;;;;;;3.58;3.02;;;;;;;21.71;57.49;96479.55;1748359;80;21112;-81
2022/06/13 09:36:34;;;;;;;5.12;3.08;;;;;;;21.47;57.85;96481.66;1739523;81;21113;-81
2022/06/13 09:39:05;;;;;;;4.20;2.62;;;;;;;21.24;58.16;96480.88;1792773;79;21011;-81
2022/06/13 09:42:13;;;;;;;3.27;2.90;;;;;;;21.07;58.12;96481.97;1781774;79;21104;-81
2022/06/13 09:45:09;;;;;;;3.98;2.50;;;;;;;20.98;58.96;96480.25;1774859;79;20988;-81
2022/06/13 09:48:07;;;;;;;3.80;2.75;;;;;;;20.91;60.34;96472.52;1762848;79;21335;-81
2022/06/13 09:50:50;;;;;;;4.42;2.60;;;;;;;20.95;60.23;96476.27;1742117;81;21032;-81
2022/06/13 09:53:43;;;;;;;4.12;2.80;;;;;;;20.96;60.01;96473.10;1756832;80;20965;-81
2022/06/13 09:56:28;;;;;;;5.65;2.77;;;;;;;21.01;60.51;96468.42;1783463;79;20988;-80
2022/06/13 09:59:27;;;;;;;4.00;3.15;;;;;;;21.08;60.20;96468.51;1781804;79;21002;-81
2022/06/13 10:02:15;;;;;;;3.72;2.85;;;;;;;21.16;60.80;96472.58;1779756;79;20950;-80
2022/06/13 10:05:01;;;;;;;3.87;3.25;;;;;;;21.22;60.72;96472.91;1786903;79;21004;-81
2022/06/13 10:07:56;;;;;;;4.83;3.40;;;;;;;21.31;60.88;96476.72;1742671;81;21399;-80
2022/06/13 10:10:45;;;;;;;3.45;3.12;;;;;;;21.38;60.66;96476.03;1786358;79;21356;-81
2022/06/13 10:13:46;;;;;;;3.60;3.02;;;;;;;21.32;60.10;96475.70;1784014;79;21225;-81
2022/06/13 10:16:25;;;;;;;3.40;3.10;;;;;;;21.27;61.12;96467.17;1791326;79;20990;-80
2022/06/13 10:19:13;;;;;;;4.17;3.40;;;;;;;21.22;60.51;96473.70;1778984;79;20935;-81
2022/06/13 10:21:47;;;;;;;4.03;3.17;;;;;;;21.21;62.16;96470.78;1789197;79;20991;-80
2022/06/13 10:24:44;;;;;;;6.55;3.37;;;;;;;21.20;61.58;96475.00;1789522;79;21017;-81
2022/06/13 10:27:36;;;;;;;4.05;3.37;;;;;;;21.18;61.33;96475.77;1787256;79;21379;-80
2022/06/13 10:30:22;;;;;;;;;;;;;;;21.13;61.39;96473.05;1798623;79;21343;-81
2022/06/13 10:33:33;;;;;;;3.22;2.83;;;;;;;21.14;61.86;96471.47;1800200;79;20068;-80
2022/06/13 10:36:30;;;;;;;4.78;3.10;;;;;;;21.08;61.33;96480.92;1765513;80;21055;-81
2022/06/13 10:39:09;;;;;;;5.72;3.55;;;;;;;21.07;61.53;96475.36;1759873;79;21425;-80
2022/06/13 10:41:39;;;;;;;3.83;3.05;;;;;;;21.09;62.25;96470.10;1777436;80;21391;-81
2022/06/13 10:44:07;;;;;;;3.35;3.05;;;;;;;21.04;61.50;96463.44;1755701;79;20956;-80
2022/06/13 10:46:33;;;;;;;3.58;3.22;;;;;;;21.12;61.45;96455.08;1743302;80;20984;-81
2022/06/13 10:49:21;;;;;;;4.50;3.20;;;;;;;21.16;62.91;96458.84;1734844;81;21013;-81
2022/06/13 10:51:47;;;;;;;3.05;2.75;;;;;;;21.22;63.17;96454.41;1738434;81;20998;-81
2022/06/13 10:54:19;;;;;;;6.15;3.25;;;;;;;21.31;63.42;96446.85;1740387;81;20939;-81
2022/06/13 10:56:51;;;;;;;;;;;;;;;21.37;62.58;96437.42;1771420;80;20961;-81
2022/06/13 10:59:31;;;;;;;5.30;3.27;;;;;;;21.50;61.81;96437.04;1765993;80;20099;-81
2022/06/13 11:02:01;;;;;;;5.50;3.17;;;;;;;21.65;61.95;96431.63;1781731;80;21335;-81
2022/06/13 11:04:31;;;;;;;5.67;3.50;;;;;;;21.81;63.72;96430.72;1782237;79;21053;-81
2022/06/13 11:07:01;;;;;;;4.60;3.62;;;;;;;21.98;62.43;96426.63;1747048;80;21072;-81
2022/06/13 11:09:40;;;;;;;4.12;3.67;;;;;;;22.10;61.39;96426.73;1767357;79;21064;-81
2022/06/13 11:12:28;;;;;;;4.92;3.60;;;;;;;22.25;61.03;96425.25;1778939;79;21336;-81
2022/06/13 11:23:37;;;;;;;5.22;4.72;;;;;;;;;;1764400;80;21299;-81
2022/06/13 11:26:03;;;;;;;4.90;4.40;;;;;;;22.04;60.11;96409.20;1744261;80;21004;-81
2022/06/13 11:28:35;;;;;;;5.20;3.87;;;;;;;22.11;60.05;96407.69;1760444;81;21027;-81
2022/06/13 11:31:20;;;;;;;5.20;4.03;;;;;;;22.25;60.63;96408.05;1736868;81;21389;-81
2022/06/13 11:33:46;;;;;;;4.95;4.37;;;;;;;22.30;59.94;96407.58;1739700;81;21026;-81
2022/06/13 11:36:26;;;;;;;6.42;4.10;;;;;;;22.26;59.71;96412.29;1758777;80;21460;-81
2022/06/13 11:39:00;;;;;;;5.12;4.22;;;;;;;22.14;60.12;96405.35;1757001;80;20975;-80
2022/06/13 11:41:43;;;;;;;4.50;4.10;;;;;;;22.04;60.25;96401.27;1767274;80;21004;-81
2022/06/13 11:44:20;;;;;;;5.15;4.00;;;;;;;21.94;60.17;96396.41;1754141;80;21007;-81
2022/06/13 11:46:59;;;;;;;13.65;11.57;;;;;;;21.80;60.20;96400.83;1758007;80;20956;-81
2022/06/13 11:49:42;;;;;;;6.53;5.90;;;;;;;21.73;61.33;96397.58;1757998;80;21302;-80
2022/06/13 11:53:35;;;;;;;9.25;8.33;;;;;;;21.65;61.07;96388.00;1745831;80;20960;-80
2022/06/13 11:54:55;;;;;;;5.25;3.77;;;;;;;21.45;60.73;96387.27;1765068;80;21013;-81
2022/06/13 11:57:37;;;;;;;5.72;3.98;;;;;;;21.40;63.00;96376.66;1759317;80;21609;-80
2022/06/13 12:00:21;;;;;;;6.37;4.10;;;;;;;21.45;64.25;96378.81;1769724;80;20995;-81
2022/06/13 12:02:54;;;;;;;6.87;5.28;;;;;;;21.43;63.13;96386.20;1723862;82;20934;-80
2022/06/13 12:05:30;;;;;;;9.65;8.53;;;;;;;21.42;63.10;96387.77;1743993;81;21063;-80
2022/06/13 12:08:16;;;;;;;4.78;4.37;;;;;;;21.47;63.68;96384.64;1778513;80;20992;-80
2022/06/13 12:11:08;;;;;;;5.60;4.60;;;;;;;21.55;64.93;96376.27;1757271;80;20957;-81
2022/06/13 12:13:39;;;;;;;4.72;4.28;;;;;;;21.66;64.23;96373.20;1784720;80;21038;-81
2022/06/13 12:16:27;;;;;;;6.28;4.72;;;;;;;21.78;65.59;96365.08;1780588;80;22073;-81
2022/06/13 12:19:17;;;;;;;3.98;3.60;;;;;;;21.82;64.62;96360.38;1778720;80;21003;-81
2022/06/13 12:22:09;;;;;;;3.90;3.60;;;;;;;21.81;65.42;96357.46;1723701;81;21402;-81
2022/06/13 12:25:07;;;;;;;5.00;3.50;;;;;;;21.76;65.54;96348.67;1740100;81;21338;-81
2022/06/13 12:28:07;;;;;;;8.00;4.65;;;;;;;21.73;65.73;96349.18;1740331;81;21408;-81
2022/06/13 12:30:49;;;;;;;4.33;3.70;;;;;;;21.67;64.63;96343.06;1720174;81;21003;-81
2022/06/13 12:33:46;;;;;;;5.70;4.40;;;;;;;21.54;63.96;96342.95;1728521;81;21314;-81
2022/06/13 12:36:39;;;;;;;4.70;3.87;;;;;;;21.41;64.47;96343.36;1725981;81;21034;-81
2022/06/13 12:39:51;;;;;;;3.80;3.42;;;;;;;21.22;63.18;96342.90;1758819;81;21323;-81